createdAt,value
2023-05-23T00:01:38.621Z,99573.06
2023-05-23T00:04:09.559Z,99564.44
2023-05-23T00:06:47.312Z,99563.41
2023-05-23T00:09:18.045Z,99563.63
2023-05-23T00:11:48.663Z,99563.94
2023-05-23T00:14:19.125Z,99558.78
2023-05-23T00:16:49.842Z,99562.78
2023-05-23T00:19:20.216Z,99557.81
2023-05-23T00:21:54.028Z,99561.47
2023-05-23T00:24:27.536Z,99557.50
2023-05-23T00:26:59.267Z,99560.78
2023-05-23T00:29:29.641Z,99568.16
2023-05-23T00:31:59.903Z,99566.84
2023-05-23T00:34:29.910Z,99569.50
2023-05-23T00:37:02.741Z,99565.50
2023-05-23T00:39:32.977Z,99573.84
2023-05-23T00:42:08.229Z,99576.34
2023-05-23T00:44:38.517Z,99577.50
2023-05-23T00:47:10.237Z,99580.00
2023-05-23T00:49:40.658Z,99587.19
2023-05-23T00:52:14.148Z,99587.19
2023-05-23T00:54:45.754Z,99584.34
2023-05-23T00:57:16.128Z,99590.84
2023-05-23T00:59:48.546Z,99582.19
2023-05-23T01:02:21.840Z,99582.84
2023-05-23T01:04:54.501Z,99585.19
2023-05-23T01:07:27.688Z,99582.53
2023-05-23T01:09:58.054Z,99576.69
2023-05-23T01:12:32.520Z,99588.50
2023-05-23T01:15:09.461Z,99581.03
2023-05-23T01:17:47.781Z,99577.38
2023-05-23T01:20:24.296Z,99576.19
2023-05-23T01:23:12.112Z,99577.53
2023-05-23T01:25:59.865Z,99568.75
2023-05-23T01:28:35.637Z,99575.88
2023-05-23T01:31:07.505Z,99575.88
2023-05-23T01:33:39.395Z,99574.56
2023-05-23T01:36:16.373Z,99577.06
2023-05-23T01:38:46.612Z,99578.22
2023-05-23T01:41:17.142Z,99577.22
2023-05-23T01:43:50.116Z,99574.88
2023-05-23T01:46:21.168Z,99584.03
2023-05-23T01:48:52.218Z,99582.19
2023-05-23T01:51:25.576Z,99590.16
2023-05-23T01:53:56.483Z,99576.88
2023-05-23T01:56:27.950Z,99579.84
2023-05-23T01:59:04.004Z,99580.22
2023-05-23T02:01:34.577Z,99574.22
2023-05-23T02:04:04.990Z,99578.69
2023-05-23T02:06:34.963Z,99574.53
2023-05-23T02:09:06.378Z,99573.88
2023-05-23T02:11:36.297Z,99574.03
2023-05-23T02:14:10.598Z,99572.06
2023-05-23T02:16:40.884Z,99573.34
2023-05-23T02:19:11.059Z,99567.34
2023-05-23T02:21:41.591Z,99569.84
2023-05-23T02:24:11.920Z,99564.53
2023-05-23T02:26:42.029Z,99573.81
2023-05-23T02:29:14.881Z,99571.81
2023-05-23T02:31:45.278Z,99564.16
2023-05-23T02:34:15.609Z,99566.31
2023-05-23T02:36:45.869Z,99568.34
2023-05-23T02:39:15.927Z,99579.13
2023-05-23T02:41:46.451Z,99576.63
2023-05-23T02:44:19.997Z,99564.50
2023-05-23T02:46:50.217Z,99571.94
2023-05-23T02:49:20.540Z,99568.31
2023-05-23T02:51:51.010Z,99568.31
2023-05-23T02:54:21.984Z,99562.47
2023-05-23T02:56:52.712Z,99566.28
2023-05-23T02:59:27.085Z,99573.44
2023-05-23T03:01:57.594Z,99566.44
2023-05-23T03:04:27.981Z,99559.50
2023-05-23T03:06:59.923Z,99577.94
2023-05-23T03:09:30.106Z,99565.31
2023-05-23T03:12:00.337Z,99566.00
2023-05-23T03:14:33.212Z,99561.00
2023-05-23T03:17:04.240Z,99570.66
2023-05-23T03:19:36.594Z,99569.00
2023-05-23T03:22:07.695Z,99578.31
2023-05-23T03:24:37.928Z,99583.63
2023-05-23T03:27:08.221Z,99577.66
2023-05-23T03:29:41.388Z,99567.88
2023-05-23T03:32:11.705Z,99564.56
2023-05-23T03:34:41.667Z,99564.25
2023-05-23T03:37:12.163Z,99555.94
2023-05-23T03:39:42.437Z,99562.28
2023-05-23T03:42:12.362Z,99560.25
2023-05-23T03:44:45.303Z,99561.25
2023-05-23T03:47:15.539Z,99562.91
2023-05-23T03:49:46.125Z,99558.75
2023-05-23T03:52:16.333Z,99554.28
2023-05-23T03:54:46.976Z,99553.75
2023-05-23T03:57:17.178Z,99554.06
2023-05-23T03:59:50.274Z,99549.59
2023-05-23T04:02:23.552Z,99555.72
2023-05-23T04:04:54.403Z,99554.19
2023-05-23T04:07:26.787Z,99551.03
2023-05-23T04:09:57.059Z,99561.66
2023-05-23T04:12:27.077Z,99561.94
2023-05-23T04:15:00.063Z,99560.38
2023-05-23T04:17:31.564Z,99560.84
2023-05-23T04:20:01.936Z,99565.75
2023-05-23T04:22:31.877Z,99557.59
2023-05-23T04:25:02.107Z,99550.69
2023-05-23T04:27:32.152Z,99555.69
2023-05-23T04:30:05.203Z,99553.50
2023-05-23T04:32:36.609Z,99564.91
2023-05-23T04:35:07.261Z,99558.44
2023-05-23T04:37:38.110Z,99560.50
2023-05-23T04:40:09.627Z,99556.59
2023-05-23T04:42:42.671Z,99561.66
2023-05-23T04:45:15.848Z,99557.41
2023-05-23T04:47:46.180Z,99565.13
2023-05-23T04:50:18.702Z,99557.56
2023-05-23T04:52:48.978Z,99557.56
2023-05-23T04:55:20.416Z,99553.09
2023-05-23T04:57:51.107Z,99556.09
2023-05-23T05:00:24.125Z,99551.06
2023-05-23T05:02:54.390Z,99546.94
2023-05-23T05:05:24.702Z,99557.31
2023-05-23T05:07:54.945Z,99554.28
2023-05-23T05:10:25.283Z,99554.22
2023-05-23T05:12:55.520Z,99552.94
2023-05-23T05:15:30.929Z,99552.44
2023-05-23T05:18:01.280Z,99551.94
2023-05-23T05:20:31.807Z,99555.81
2023-05-23T05:23:02.207Z,99558.16
2023-05-23T05:25:34.814Z,99553.84
2023-05-23T05:28:06.528Z,99555.66
2023-05-23T05:30:39.630Z,99547.59
2023-05-23T05:33:10.510Z,99550.09
2023-05-23T05:35:41.405Z,99546.53
2023-05-23T05:38:11.661Z,99545.25
2023-05-23T05:40:49.193Z,99543.09
2023-05-23T05:43:19.391Z,99542.63
2023-05-23T05:45:52.309Z,99549.47
2023-05-23T05:48:22.594Z,99542.56
2023-05-23T05:50:53.065Z,99546.97
2023-05-23T05:53:23.329Z,99546.06
2023-05-23T05:55:53.560Z,99546.41
2023-05-23T05:58:23.895Z,99542.25
2023-05-23T06:00:56.768Z,99540.47
2023-05-23T06:03:27.856Z,99547.22
2023-05-23T06:05:58.340Z,99544.28
2023-05-23T06:08:28.918Z,99549.19
2023-05-23T06:10:59.368Z,99544.66
2023-05-23T06:13:29.670Z,99540.69
2023-05-23T06:16:02.831Z,99541.28
2023-05-23T06:18:33.179Z,99546.06
2023-05-23T06:21:03.520Z,99539.97
2023-05-23T06:23:36.726Z,99546.47
2023-05-23T06:26:10.820Z,99552.69
2023-05-23T06:28:42.272Z,99547.41
2023-05-23T06:31:15.411Z,99545.34
2023-05-23T06:33:45.994Z,99544.69
2023-05-23T06:36:16.366Z,99554.00
2023-05-23T06:38:46.707Z,99551.19
2023-05-23T06:41:17.050Z,99548.22
2023-05-23T06:43:47.271Z,99551.22
2023-05-23T06:46:20.396Z,99546.53
2023-05-23T06:48:59.274Z,99548.97
2023-05-23T06:51:37.166Z,99545.91
2023-05-23T06:54:08.217Z,99548.75
2023-05-23T06:56:38.478Z,99544.69
2023-05-23T06:59:08.882Z,99543.69
2023-05-23T07:01:41.921Z,99545.31
2023-05-23T07:04:12.494Z,99546.81
2023-05-23T07:06:42.878Z,99542.88
2023-05-23T07:09:13.952Z,99542.13
2023-05-23T07:11:44.241Z,99542.00
2023-05-23T07:14:14.545Z,99544.81
2023-05-23T07:16:47.487Z,99543.00
2023-05-23T07:19:17.849Z,99540.38
2023-05-23T07:21:48.256Z,99536.69
2023-05-23T07:24:20.408Z,99539.94
2023-05-23T07:26:51.853Z,99529.19
2023-05-23T07:29:22.469Z,99533.84
2023-05-23T07:31:55.426Z,99534.34
2023-05-23T07:34:27.077Z,99537.34
2023-05-23T07:36:57.409Z,99534.59
2023-05-23T07:39:28.260Z,99530.75
2023-05-23T07:41:58.613Z,99529.47
2023-05-23T07:44:29.397Z,99532.56
2023-05-23T07:47:02.722Z,99532.16
2023-05-23T07:49:36.111Z,99519.19
2023-05-23T07:52:09.401Z,99528.41
2023-05-23T07:54:39.743Z,99523.72
2023-05-23T07:57:10.377Z,99526.19
2023-05-23T07:59:41.540Z,99518.84
2023-05-23T08:02:14.526Z,99522.13
2023-05-23T08:04:45.619Z,99525.13
2023-05-23T08:07:18.618Z,99518.16
2023-05-23T08:09:49.720Z,99529.00
2023-05-23T08:12:20.059Z,99511.63
2023-05-23T08:14:52.376Z,99519.94
2023-05-23T08:17:25.768Z,99523.94
2023-05-23T08:19:56.080Z,99516.88
2023-05-23T08:22:26.379Z,99519.63
2023-05-23T08:24:56.583Z,99517.47
2023-05-23T08:27:26.904Z,99513.31
2023-05-23T08:29:57.223Z,99518.16
2023-05-23T08:32:30.554Z,99530.63
2023-05-23T08:35:01.024Z,99519.41
2023-05-23T08:37:31.340Z,99532.44
2023-05-23T08:40:01.936Z,99524.94
2023-05-23T08:42:32.419Z,99523.44
2023-05-23T08:45:02.905Z,99525.16
2023-05-23T08:47:40.827Z,99516.22
2023-05-23T08:50:13.746Z,99533.03
2023-05-23T08:52:51.054Z,99526.56
2023-05-23T08:55:21.723Z,99523.81
2023-05-23T08:57:52.684Z,99522.88
2023-05-23T09:00:24.990Z,99522.34
2023-05-23T09:02:58.402Z,99524.56
2023-05-23T09:05:30.123Z,99520.56
2023-05-23T09:08:01.452Z,99515.28
2023-05-23T09:10:31.930Z,99525.03
2023-05-23T09:13:03.683Z,99523.44
2023-05-23T09:15:34.636Z,99521.34
2023-05-23T09:18:07.542Z,99522.16
2023-05-23T09:20:37.970Z,99519.41
2023-05-23T09:23:09.441Z,99511.75
2023-05-23T09:25:48.949Z,99520.50
2023-05-23T09:28:19.270Z,99519.16
2023-05-23T09:30:49.602Z,99514.22
2023-05-23T09:33:22.642Z,99516.09
2023-05-23T09:35:52.910Z,99512.56
2023-05-23T09:38:23.147Z,99516.84
2023-05-23T09:40:55.118Z,99511.69
2023-05-23T09:43:25.457Z,99509.00
2023-05-23T09:45:57.302Z,99497.22
2023-05-23T09:48:34.246Z,99513.19
2023-05-23T09:51:09.343Z,99507.19
2023-05-23T09:53:40.279Z,99507.06
2023-05-23T09:56:15.593Z,99502.84
2023-05-23T09:58:49.769Z,99491.16
2023-05-23T10:01:23.669Z,99498.22
2023-05-23T10:04:00.713Z,99495.06
2023-05-23T10:06:38.118Z,99497.84
2023-05-23T10:09:09.718Z,99491.31
2023-05-23T10:12:24.863Z,99489.66
2023-05-23T10:14:58.131Z,99479.28
2023-05-23T10:17:39.008Z,99474.38
2023-05-23T10:20:15.260Z,99476.31
2023-05-23T10:22:46.054Z,99475.22
2023-05-23T10:25:16.624Z,99470.50
2023-05-23T10:27:47.302Z,99456.88
2023-05-23T10:30:18.186Z,99464.72
2023-05-23T10:32:49.191Z,99460.13
2023-05-23T10:35:28.560Z,99461.00
2023-05-23T10:38:05.026Z,99455.03
2023-05-23T10:40:47.830Z,99459.09
2023-05-23T10:43:26.792Z,99453.66
2023-05-23T10:45:57.101Z,99450.38
2023-05-23T10:48:36.078Z,99450.69
2023-05-23T10:51:10.125Z,99444.13
2023-05-23T10:53:41.515Z,99431.84
2023-05-23T10:56:13.409Z,99443.28
2023-05-23T10:58:46.904Z,99442.19
2023-05-23T11:01:20.275Z,99442.22
2023-05-23T11:03:56.246Z,99437.84
2023-05-23T11:06:38.790Z,99428.31
2023-05-23T11:09:12.604Z,99434.56
2023-05-23T11:11:58.115Z,99431.56
2023-05-23T11:14:57.247Z,99426.66
2023-05-23T11:17:34.911Z,99428.03
2023-05-23T11:20:09.977Z,99417.66
2023-05-23T11:22:43.090Z,99409.47
2023-05-23T11:25:17.063Z,99409.47
2023-05-23T11:27:49.709Z,99412.69
2023-05-23T11:30:21.065Z,99400.44
2023-05-23T11:32:56.524Z,99396.38
2023-05-23T11:35:27.051Z,99398.50
2023-05-23T11:38:00.614Z,99393.41
2023-05-23T11:40:33.089Z,99389.56
2023-05-23T11:43:05.238Z,99380.84
2023-05-23T11:45:36.608Z,99381.94
2023-05-23T11:48:12.157Z,99368.00
2023-05-23T11:50:50.496Z,99367.38
2023-05-23T11:53:25.941Z,99357.56
2023-05-23T11:55:58.670Z,99361.03
2023-05-23T11:58:30.680Z,99363.66
2023-05-23T12:01:04.569Z,99351.78
2023-05-23T12:03:35.198Z,99356.00
2023-05-23T12:06:05.791Z,99357.94
2023-05-23T12:08:38.687Z,99352.78
2023-05-23T12:11:09.373Z,99355.22
2023-05-23T12:13:45.058Z,99352.13
2023-05-23T12:16:17.516Z,99344.88
2023-05-23T12:18:47.963Z,99348.31
2023-05-23T12:21:18.256Z,99349.75
2023-05-23T12:23:54.314Z,99346.28
2023-05-23T12:26:24.808Z,99347.47
2023-05-23T12:28:55.155Z,99337.25
2023-05-23T12:31:26.108Z,99344.44
2023-05-23T12:33:56.808Z,99345.25
2023-05-23T12:36:41.907Z,99343.94
2023-05-23T12:39:28.365Z,99330.75
2023-05-23T12:42:09.794Z,99334.50
2023-05-23T12:44:40.326Z,99331.03
2023-05-23T12:47:16.328Z,99338.78
2023-05-23T12:49:47.190Z,99326.97
2023-05-23T12:52:17.558Z,99331.16
2023-05-23T12:54:50.573Z,99326.81
2023-05-23T12:57:21.031Z,99329.25
2023-05-23T12:59:51.353Z,99325.84
2023-05-23T13:02:21.946Z,99324.66
2023-05-23T13:04:53.242Z,99313.75
2023-05-23T13:07:23.496Z,99305.44
2023-05-23T13:09:56.523Z,99305.44
2023-05-23T13:12:27.185Z,99304.19
2023-05-23T13:15:00.704Z,99301.78
2023-05-23T13:17:31.062Z,99289.81
2023-05-23T13:20:01.396Z,99295.28
2023-05-23T13:22:32.337Z,99299.34
2023-05-23T13:25:05.268Z,99303.72
2023-05-23T13:27:35.571Z,99290.91
2023-05-23T13:30:06.098Z,99295.00
2023-05-23T13:32:36.550Z,99290.09
2023-05-23T13:35:07.322Z,99301.81
2023-05-23T13:37:40.766Z,99302.88
2023-05-23T13:40:19.715Z,99302.25
2023-05-23T13:42:52.150Z,99295.50
2023-05-23T13:45:23.502Z,99302.06
2023-05-23T13:47:54.009Z,99306.41
2023-05-23T13:50:24.363Z,99302.59
2023-05-23T13:52:57.134Z,99304.50
2023-05-23T13:55:30.865Z,99297.09
2023-05-23T13:58:01.164Z,99296.25
2023-05-23T14:00:33.568Z,99297.88
2023-05-23T14:03:06.615Z,99292.94
2023-05-23T14:05:37.026Z,99303.25
2023-05-23T14:08:07.538Z,99291.84
2023-05-23T14:10:40.706Z,99299.47
2023-05-23T14:13:11.234Z,99299.22
2023-05-23T14:15:42.794Z,99290.81
2023-05-23T14:18:13.234Z,99289.19
2023-05-23T14:20:43.522Z,99295.19
2023-05-23T14:23:13.848Z,99287.00
2023-05-23T14:25:46.758Z,99299.00
2023-05-23T14:28:17.404Z,99291.44
2023-05-23T14:30:49.433Z,99285.72
2023-05-23T14:33:19.772Z,99279.75
2023-05-23T14:35:50.115Z,99276.47
2023-05-23T14:38:20.653Z,99274.56
2023-05-23T14:40:56.434Z,99276.22
2023-05-23T14:43:26.794Z,99272.38
2023-05-23T14:45:59.450Z,99274.81
2023-05-23T14:48:32.657Z,99267.22
2023-05-23T14:51:03.533Z,99267.25
2023-05-23T14:53:33.873Z,99263.38
2023-05-23T14:56:06.946Z,99267.47
2023-05-23T14:58:37.198Z,99275.38
2023-05-23T15:01:07.830Z,99272.66
2023-05-23T15:03:38.174Z,99264.47
2023-05-23T15:06:09.068Z,99272.88
2023-05-23T15:08:39.362Z,99276.09
2023-05-23T15:11:12.373Z,99270.53
2023-05-23T15:13:42.700Z,99262.50
2023-05-23T15:16:16.380Z,99256.94
2023-05-23T15:18:47.052Z,99261.41
2023-05-23T15:21:17.442Z,99263.69
2023-05-23T15:23:47.811Z,99260.34
2023-05-23T15:26:23.040Z,99260.19
2023-05-23T15:28:53.499Z,99266.03
2023-05-23T15:31:23.864Z,99266.44
2023-05-23T15:33:55.775Z,99257.97
2023-05-23T15:36:26.198Z,99261.69
2023-05-23T15:38:56.538Z,99263.22
2023-05-23T15:41:29.558Z,99255.66
2023-05-23T15:43:59.859Z,99264.06
2023-05-23T15:46:30.320Z,99256.41
2023-05-23T15:49:10.567Z,99274.38
2023-05-23T15:51:50.765Z,99279.03
2023-05-23T15:54:21.252Z,99277.19
2023-05-23T15:56:57.111Z,99283.09
2023-05-23T15:59:27.442Z,99298.69
2023-05-23T16:01:57.923Z,99288.81
2023-05-23T16:04:28.310Z,99283.06
2023-05-23T16:07:00.866Z,99292.16
2023-05-23T16:09:31.228Z,99301.81
2023-05-23T16:12:04.161Z,99305.66
2023-05-23T16:14:34.454Z,99302.97
2023-05-23T16:17:07.185Z,99299.59
2023-05-23T16:19:37.662Z,99306.16
2023-05-23T16:22:10.687Z,99294.53
2023-05-23T16:24:40.999Z,99291.91
2023-05-23T16:27:13.815Z,99296.16
2023-05-23T16:29:44.235Z,99292.41
2023-05-23T16:32:15.693Z,99285.59
2023-05-23T16:34:49.485Z,99292.03
2023-05-23T16:37:23.159Z,99302.41
2023-05-23T16:39:53.481Z,99302.03
2023-05-23T16:42:26.461Z,99302.81
2023-05-23T16:44:57.949Z,99290.44
2023-05-23T16:47:28.348Z,99276.91
2023-05-23T16:49:58.773Z,99268.47
2023-05-23T16:52:29.069Z,99277.66
2023-05-23T16:54:59.312Z,99257.59
2023-05-23T16:57:32.394Z,99259.69
2023-05-23T17:00:05.744Z,99261.34
2023-05-23T17:02:36.769Z,99273.34
2023-05-23T17:05:07.579Z,99270.66
2023-05-23T17:07:38.270Z,99278.50
2023-05-23T17:10:09.860Z,99288.81
2023-05-23T17:12:43.056Z,99306.19
2023-05-23T17:15:14.342Z,99326.97
2023-05-23T17:17:44.728Z,99364.66
2023-05-23T17:20:15.581Z,99373.53
2023-05-23T17:22:46.651Z,99388.44
2023-05-23T17:25:19.705Z,99389.28
2023-05-23T17:27:54.953Z,99386.81
2023-05-23T17:30:25.290Z,99388.22
2023-05-23T17:32:55.704Z,99397.69
2023-05-23T17:35:26.385Z,99401.19
2023-05-23T17:37:58.112Z,99402.41
2023-05-23T17:40:28.560Z,99409.41
2023-05-23T17:43:03.361Z,99412.88
2023-05-23T17:45:33.714Z,99414.69
2023-05-23T17:48:06.860Z,99433.22
2023-05-23T17:50:37.174Z,99435.03
2023-05-23T17:53:08.073Z,99437.31
2023-05-23T17:55:38.379Z,99433.59
2023-05-23T17:58:11.425Z,99446.16
2023-05-23T18:00:42.283Z,99457.81
2023-05-23T18:03:13.312Z,99449.69
2023-05-23T18:05:43.841Z,99446.94
2023-05-23T18:08:14.206Z,99441.31
2023-05-23T18:10:47.660Z,99449.06
2023-05-23T18:13:20.612Z,99457.44
2023-05-23T18:15:56.017Z,99460.63
2023-05-23T18:18:26.673Z,99457.88
2023-05-23T18:20:57.129Z,99457.19
2023-05-23T18:23:29.638Z,99470.38
2023-05-23T18:26:00.056Z,99479.41
2023-05-23T18:28:33.170Z,99492.53
2023-05-23T18:31:04.593Z,99499.25
2023-05-23T18:33:35.161Z,99504.63
2023-05-23T18:36:07.114Z,99515.34
2023-05-23T18:38:37.721Z,99517.81
2023-05-23T18:41:14.753Z,99518.19
2023-05-23T18:43:51.672Z,99510.63
2023-05-23T18:46:24.318Z,99512.72
2023-05-23T18:48:57.519Z,99515.59
2023-05-23T18:51:30.564Z,99518.84
2023-05-23T18:54:01.482Z,99518.75
2023-05-23T18:56:32.804Z,99524.50
2023-05-23T18:59:13.840Z,99534.25
2023-05-23T19:01:44.694Z,99542.25
2023-05-23T19:04:15.378Z,99548.06
2023-05-23T19:06:49.777Z,99544.31
2023-05-23T19:09:20.829Z,99558.44
2023-05-23T19:11:53.844Z,99580.41
2023-05-23T19:14:27.002Z,99600.50
2023-05-23T19:16:58.593Z,99613.16
2023-05-23T19:19:31.706Z,99633.25
2023-05-23T19:22:04.226Z,99617.78
2023-05-23T19:24:35.299Z,99632.50
2023-05-23T19:27:09.520Z,99622.75
2023-05-23T19:29:44.829Z,99633.09
2023-05-23T19:32:20.240Z,99628.75
2023-05-23T19:34:50.695Z,99629.41
2023-05-23T19:37:24.497Z,99624.88
2023-05-23T19:39:54.892Z,99617.06
2023-05-23T19:42:25.232Z,99616.41
2023-05-23T19:44:58.452Z,99615.66
2023-05-23T19:47:30.274Z,99606.44
2023-05-23T19:50:01.212Z,99606.63
2023-05-23T19:52:31.251Z,99603.28
2023-05-23T19:55:03.332Z,99597.22
2023-05-23T19:57:34.429Z,99592.81
2023-05-23T20:00:11.591Z,99584.22
2023-05-23T20:02:43.038Z,99586.72
2023-05-23T20:05:13.505Z,99585.69
2023-05-23T20:07:43.832Z,99581.19
2023-05-23T20:10:15.160Z,99576.84
2023-05-23T20:12:45.278Z,99571.94
2023-05-23T20:15:27.588Z,99564.97
2023-05-23T20:18:09.689Z,99563.22
2023-05-23T20:20:40.469Z,99556.22
2023-05-23T20:23:10.962Z,99541.38
2023-05-23T20:25:41.849Z,99538.69
2023-05-23T20:28:15.119Z,99524.13
2023-05-23T20:30:48.240Z,99521.47
2023-05-23T20:33:18.648Z,99524.97
2023-05-23T20:35:50.004Z,99516.94
2023-05-23T20:38:24.923Z,99519.25
2023-05-23T20:40:55.645Z,99509.19
2023-05-23T20:43:26.054Z,99478.34
2023-05-23T20:46:01.800Z,99471.94
2023-05-23T20:48:33.106Z,99488.53
2023-05-23T20:51:07.684Z,99465.22
2023-05-23T20:53:38.134Z,99466.63
2023-05-23T20:56:10.427Z,99468.84
2023-05-23T20:58:41.056Z,99479.94
2023-05-23T21:01:15.346Z,99479.75
2023-05-23T21:03:45.695Z,99471.28
2023-05-23T21:06:15.662Z,99474.13
2023-05-23T21:08:46.037Z,99472.66
2023-05-23T21:11:16.436Z,99474.59
2023-05-23T21:13:46.660Z,99468.06
2023-05-23T21:16:19.895Z,99466.03
2023-05-23T21:18:53.381Z,99459.03
2023-05-23T21:21:23.935Z,99457.63
2023-05-23T21:23:53.932Z,99448.34
2023-05-23T21:26:24.208Z,99435.53
2023-05-23T21:28:54.505Z,99442.06
2023-05-23T21:31:40.289Z,99433.69
2023-05-23T21:34:23.187Z,99433.97
2023-05-23T21:36:56.145Z,99423.66
2023-05-23T21:39:33.073Z,99413.44
2023-05-23T21:42:10.633Z,99413.44
2023-05-23T21:44:41.137Z,99407.69
2023-05-23T21:47:14.159Z,99424.94
2023-05-23T21:49:44.463Z,99426.03
2023-05-23T21:52:14.491Z,99426.38
2023-05-23T21:54:47.171Z,99421.34
2023-05-23T21:57:17.557Z,99412.19
2023-05-23T21:59:47.494Z,99405.69
2023-05-23T22:02:20.387Z,99408.69
2023-05-23T22:04:51.632Z,99413.84
2023-05-23T22:07:25.524Z,99412.19
2023-05-23T22:09:56.523Z,99414.34
2023-05-23T22:12:27.146Z,99416.84
2023-05-23T22:14:57.547Z,99418.50
2023-05-23T22:17:30.747Z,99419.50
2023-05-23T22:20:01.152Z,99423.09
2023-05-23T22:22:36.812Z,99428.44
2023-05-23T22:25:09.579Z,99430.91
2023-05-23T22:27:39.808Z,99437.53
2023-05-23T22:30:10.459Z,99439.38
2023-05-23T22:32:43.462Z,99445.75
2023-05-23T22:35:16.890Z,99450.63
2023-05-23T22:37:47.115Z,99446.03
2023-05-23T22:40:17.068Z,99445.19
2023-05-23T22:42:47.468Z,99442.91
2023-05-23T22:45:21.772Z,99460.94
2023-05-23T22:47:54.786Z,99476.97
2023-05-23T22:50:28.341Z,99478.38
2023-05-23T22:52:59.901Z,99472.00
2023-05-23T22:55:30.194Z,99480.75
2023-05-23T22:58:00.205Z,99508.59
2023-05-23T23:00:30.753Z,99517.16
2023-05-23T23:03:07.805Z,99523.31
2023-05-23T23:05:38.276Z,99513.66
2023-05-23T23:08:08.723Z,99525.06
2023-05-23T23:10:38.940Z,99525.34
2023-05-23T23:13:12.003Z,99529.69
2023-05-23T23:15:45.676Z,99533.00
2023-05-23T23:18:23.605Z,99538.34
2023-05-23T23:20:53.930Z,99535.31
2023-05-23T23:23:27.288Z,99535.09
2023-05-23T23:25:59.644Z,99528.56
2023-05-23T23:28:32.350Z,99535.41
2023-05-23T23:31:05.542Z,99533.56
2023-05-23T23:33:38.663Z,99535.72
2023-05-23T23:36:09.806Z,99526.06
2023-05-23T23:38:42.470Z,99535.09
2023-05-23T23:41:12.788Z,99532.41
2023-05-23T23:43:46.323Z,99542.91
2023-05-23T23:46:16.853Z,99543.69
2023-05-23T23:48:49.718Z,99548.91
2023-05-23T23:51:20.060Z,99542.75
2023-05-23T23:53:53.214Z,99549.66
2023-05-23T23:56:24.929Z,99546.97
2023-05-23T23:58:55.476Z,99547.81
